aviador You're here:

YCIN Decoded Metar

CURTIN/DERBY in _UNIDENTIFIED
Report Time2017-11-23 22:00:00
UTC Time2017-11-23 22:20:19
Flight Rules vfr VFR
Wind350° at 07 kt
W.Decomp.*RWY 29: 3.7 kt HW 5.9 kt RCW
W.Rank350° ranks 10
Current wind is above 350° avg. (5.6)
Visibility9999 m
Phenomena:Light Rain
Clouds:Scattered 032 Hf
Scattered 070 Hf
Scattered 096 Hf
Expected CloudBase > 2,400 ft AGL from Temp-Dew spread
CeilingNone
Temp28°C (ISA +14)
Dew Point22°C (70% RH)
Heat Index30.7°C
QNH1007 hPa
Density Alt2,415 ft
Elevation299 ft
Report Wrong Elevation
Raw Report
METAR YCIN 232200Z AUTO 35007KT 9999 -RA SCT032 SCT070 SCT096 28/22 Q1007=

Extra information for YCIN:More info

Metar Taf Metar & Taf Last 4 Metars F.Rules Stats Wind Profile Meteogram Temp Stats Airport Information Weather charts Add Link Nearby VenuesMetar ALERT Operation Metar Decoded Social comments